Scottish Viking — IBDZ — position and weather

sailwx.info

Track history (hours):
 
Tides and Currents Weather Stations Pressure Air Temp Water Temp Dewpoint Dewpoint Depression Visibility Wind Speed Wind Dir Waves Ship Positions

Scottish Viking

Last reported at 2018-May-24 23:58 UTC. Time now 2018-May-25 03:17 UTC.
Position N 57°59' E 019°49'.

Length 186 m; draft 6.6 m.

Type: Ship. MMSI: 247265800.

Date/timePositionNaut miles runAvg speedWind from/ knotsBaromVisibWave heightAir tempDewpointWater temp
2018-May-24 23:58N 57°59' E 019°49'920.0
2018-May-24 23:30N 58°04' E 019°34'1019.7
2018-May-24 23:00N 58°09' E 019°18'919.2
2018-May-24 22:30N 58°16' E 019°05'1019.5
2018-May-24 22:00N 58°23' E 018°53'1019.8
2018-May-24 21:30N 58°30' E 018°40'1019.6
2018-May-24 21:00N 58°37' E 018°26'1019.5
2018-May-24 20:30N 58°44' E 018°14'1019.1
2018-May-24 20:00N 58°52' E 018°03'4 6.9
2018-May-24 19:30N 58°54' E 017°58'0 0.0
2018-May-24 19:00N 58°54' E 017°58'0 0.0
2018-May-24 18:30N 58°54' E 017°58'0 0.0
2018-May-24 18:00N 58°54' E 017°58'0 0.0
2018-May-24 17:30N 58°54' E 017°58'0 0.0
2018-May-24 17:00N 58°54' E 017°58'0 0.0
2018-May-24 16:30N 58°54' E 017°58'0 0.0
2018-May-24 16:00N 58°54' E 017°58'0 0.0
2018-May-24 15:30N 58°54' E 017°58'2 4.2
2018-May-24 15:01N 58°54' E 018°01'1019.2
2018-May-24 14:31N 58°46' E 018°11'816.7
2018-May-24 14:01N 58°40' E 018°23'917.2
2018-May-24 13:31N 58°33' E 018°34'11218.5
2018-May-24 07:27N 57°27' E 021°26'5 1.3
2018-May-24 03:28N 57°24' E 021°33'714.7
2018-May-24 03:00N 57°29' E 021°24'1319.4
2018-May-24 02:21N 57°36' E 021°04'719.8
2018-May-24 02:00N 57°39' E 020°53'1019.7
2018-May-24 01:31N 57°44' E 020°37'1219.8
2018-May-24 00:55N 57°49' E 020°18'919.7
2018-May-24 00:29N 57°53' E 020°03'919.8
2018-May-24 00:01N 57°59' E 019°49'1019.7
2018-May-23 23:30N 58°04' E 019°33'1020.0
2018-May-23 23:00N 58°09' E 019°17'1020.1
2018-May-23 22:31N 58°17' E 019°04'1120.2
2018-May-23 21:59N 58°25' E 018°51'919.9
2018-May-23 21:30N 58°31' E 018°38'1019.5
2018-May-23 20:59N 58°39' E 018°24'1019.7
2018-May-23 20:30N 58°45' E 018°12'1019.1
2018-May-23 20:01N 58°53' E 018°02'2 4.5
2018-May-23 19:29N 58°54' E 017°58'0 0.0
2018-May-23 18:59N 58°54' E 017°58'0 0.0
2018-May-23 18:29N 58°54' E 017°58'0 0.0
2018-May-23 17:58N 58°54' E 017°58'0 0.0
2018-May-23 17:29N 58°54' E 017°58'0 0.0
2018-May-23 16:59N 58°54' E 017°58'0 0.0
2018-May-23 16:29N 58°54' E 017°58'0 0.0
2018-May-23 15:56N 58°54' E 017°58'0 0.0
2018-May-23 15:30N 58°54' E 017°58'2 4.9
2018-May-23 15:00N 58°53' E 018°02'917.4
2018-May-23 14:30N 58°46' E 018°11'1017.7
2018-May-23 13:57N 58°39' E 018°24'7 0.4
2018-May-22 21:03N 58°34' E 018°34'119.1
2018-May-22 21:00N 58°34' E 018°33'919.0
2018-May-22 20:30N 58°41' E 018°20'918.9
2018-May-22 20:00N 58°48' E 018°08'816.7
2018-May-22 19:30N 58°55' E 017°59'1 1.8
2018-May-22 18:56N 58°54' E 017°58'0 0.0
2018-May-22 18:26N 58°54' E 017°58'0 0.0
2018-May-22 17:59N 58°54' E 017°58'0 0.0
2018-May-22 17:29N 58°54' E 017°58'0 0.0
2018-May-22 16:59N 58°54' E 017°58'0 0.0
2018-May-22 16:29N 58°54' E 017°58'0 0.0
2018-May-22 15:59N 58°54' E 017°58'0 0.0
2018-May-22 15:31N 58°54' E 017°58'2 4.9
2018-May-22 15:01N 58°53' E 018°02'918.0
2018-May-22 14:31N 58°46' E 018°11'918.2
2018-May-22 14:00N 58°39' E 018°24'14 0.9
2018-May-21 21:18N 58°29' E 018°43'819.0
2018-May-21 20:54N 58°34' E 018°33'818.8
2018-May-21 20:30N 58°40' E 018°23'918.3
2018-May-21 20:01N 58°46' E 018°11'918.5
2018-May-21 19:31N 58°54' E 018°01'2 3.6
2018-May-21 18:59N 58°54' E 017°58'0 0.0
2018-May-21 18:29N 58°54' E 017°58'0 0.0
2018-May-21 17:59N 58°54' E 017°58'0 0.0
2018-May-21 17:26N 58°54' E 017°58'0 0.0
2018-May-21 16:59N 58°54' E 017°58'0 0.0
2018-May-21 16:23N 58°54' E 017°58'0 0.0
2018-May-21 15:59N 58°54' E 017°58'0 0.0
2018-May-21 15:29N 58°54' E 017°58'0 0.0
2018-May-21 14:59N 58°54' E 017°58'0 0.0
2018-May-21 14:29N 58°54' E 017°58'0 0.0
2018-May-21 13:59N 58°54' E 017°58'0 0.0
2018-May-21 13:29N 58°54' E 017°58'0 0.0
2018-May-21 12:59N 58°54' E 017°58'0 0.0
2018-May-21 12:29N 58°54' E 017°58'0 0.0
2018-May-21 11:59N 58°54' E 017°58'0 0.0
2018-May-21 11:29N 58°54' E 017°58'0 0.0
2018-May-21 10:59N 58°54' E 017°58'0 0.0
2018-May-21 10:26N 58°54' E 017°58'0 0.0
2018-May-21 09:59N 58°54' E 017°58'0 0.0
2018-May-21 09:29N 58°54' E 017°58'0 0.0
2018-May-21 08:59N 58°54' E 017°58'0 0.0
2018-May-21 08:29N 58°54' E 017°58'0 0.0
2018-May-21 07:59N 58°54' E 017°58'0 0.0
2018-May-21 07:30N 58°54' E 017°58'3 5.6
2018-May-21 07:00N 58°53' E 018°02'714.5
2018-May-21 06:30N 58°47' E 018°09'815.2
2018-May-21 06:00N 58°41' E 018°20'815.2
2018-May-21 05:30N 58°36' E 018°30'8 0.3
2018-May-19 21:02N 58°30' E 018°41'120.4
2018-May-19 20:58N 58°31' E 018°39'1120.5
2018-May-19 20:27N 58°38' E 018°24'920.4
2018-May-19 20:00N 58°45' E 018°12'1020.0
2018-May-19 19:30N 58°53' E 018°02'3 5.4
2018-May-19 19:00N 58°54' E 017°58'0 0.0
2018-May-19 18:30N 58°54' E 017°58'0 0.0
2018-May-19 18:00N 58°54' E 017°58'0 0.0
2018-May-19 17:30N 58°54' E 017°58'0 0.0
2018-May-19 17:00N 58°54' E 017°58'0 0.0
2018-May-19 16:30N 58°54' E 017°58'2 4.7
2018-May-19 16:00N 58°53' E 018°02'1019.1
2018-May-19 15:30N 58°45' E 018°11'917.5
2018-May-19 15:00N 58°39' E 018°24'8 0.4
2018-May-18 21:56N 58°45' E 018°13'920.3
2018-May-18 21:30N 58°52' E 018°03'4 7.6
2018-May-18 20:59N 58°54' E 017°58'0 0.0
2018-May-18 20:29N 58°54' E 017°58'0 0.0
2018-May-18 19:59N 58°54' E 017°58'0 0.0
2018-May-18 19:29N 58°54' E 017°58'0 0.0
2018-May-18 18:59N 58°54' E 017°58'0 0.1
2018-May-18 18:30N 58°54' E 017°58'3 5.2
2018-May-18 18:00N 58°53' E 018°02'815.1
2018-May-18 17:30N 58°47' E 018°11'816.5
2018-May-18 17:00N 58°48' E 018°27'1116.6
2018-May-18 16:19N 58°50' E 018°48'16 0.8
2018-May-17 20:51N 58°46' E 018°19'720.6
2018-May-17 20:31N 58°48' E 018°06'714.6
2018-May-17 20:00N 58°54' E 017°58'0 0.1
2018-May-17 19:22N 58°54' E 017°58'0 0.0
2018-May-17 18:46N 58°54' E 017°58'0 0.0
2018-May-17 18:28N 58°54' E 017°58'0 0.0
2018-May-17 17:58N 58°54' E 017°58'0 0.0
2018-May-17 17:30N 58°54' E 017°58'0 0.0
2018-May-17 17:00N 58°54' E 017°58'0 0.0
2018-May-17 16:30N 58°54' E 017°58'0 0.0
2018-May-17 16:00N 58°54' E 017°58'0 0.0
2018-May-17 15:30N 58°54' E 017°58'3 5.1
2018-May-17 15:00N 58°53' E 018°02'815.7
2018-May-17 14:30N 58°46' E 018°09'54 3.4
2018-May-16 22:57N 58°08' E 019°21'2819.5
2018-May-16 21:31N 58°28' E 018°44'018.6
2018-May-16 21:30N 58°28' E 018°43'1219.6
2018-May-16 20:55N 58°37' E 018°28'819.7
2018-May-16 20:30N 58°42' E 018°17'1019.4
2018-May-16 20:00N 58°50' E 018°05'5 1.1
2018-May-16 15:02N 58°54' E 018°01'520.1
2018-May-16 14:48N 58°50' E 018°04'19 1.1
2018-May-15 21:28N 58°36' E 018°29'1020.4
2018-May-15 20:57N 58°44' E 018°15'1119.7
2018-May-15 20:24N 58°53' E 018°02'1 0.2
2018-May-15 14:57N 58°52' E 018°03'  
Track history (hours):
 
Tides and Currents Weather Stations Pressure Air Temp Water Temp Dewpoint Dewpoint Depression Visibility Wind Speed Wind Dir Waves Ship Positions

Scottish Viking

Last reported at 2018-May-24 23:58 UTC. Time now 2018-May-25 03:17 UTC.
Position N 57°59' E 019°49'.

Length 186 m; draft 6.6 m.

Type: Ship. MMSI: 247265800.

Date/timePositionNaut miles runAvg speedWind from/ knotsBaromVisibWave heightAir tempDewpointWater temp
2018-May-24 23:58N 57°59' E 019°49'920.0
2018-May-24 23:30N 58°04' E 019°34'1019.7
2018-May-24 23:00N 58°09' E 019°18'919.2
2018-May-24 22:30N 58°16' E 019°05'1019.5
2018-May-24 22:00N 58°23' E 018°53'1019.8
2018-May-24 21:30N 58°30' E 018°40'1019.6
2018-May-24 21:00N 58°37' E 018°26'1019.5
2018-May-24 20:30N 58°44' E 018°14'1019.1
2018-May-24 20:00N 58°52' E 018°03'4 6.9
2018-May-24 19:30N 58°54' E 017°58'0 0.0
2018-May-24 19:00N 58°54' E 017°58'0 0.0
2018-May-24 18:30N 58°54' E 017°58'0 0.0
2018-May-24 18:00N 58°54' E 017°58'0 0.0
2018-May-24 17:30N 58°54' E 017°58'0 0.0
2018-May-24 17:00N 58°54' E 017°58'0 0.0
2018-May-24 16:30N 58°54' E 017°58'0 0.0
2018-May-24 16:00N 58°54' E 017°58'0 0.0
2018-May-24 15:30N 58°54' E 017°58'2 4.2
2018-May-24 15:01N 58°54' E 018°01'1019.2
2018-May-24 14:31N 58°46' E 018°11'816.7
2018-May-24 14:01N 58°40' E 018°23'917.2
2018-May-24 13:31N 58°33' E 018°34'11218.5
2018-May-24 07:27N 57°27' E 021°26'5 1.3
2018-May-24 03:28N 57°24' E 021°33'714.7
2018-May-24 03:00N 57°29' E 021°24'1319.4
2018-May-24 02:21N 57°36' E 021°04'719.8
2018-May-24 02:00N 57°39' E 020°53'1019.7
2018-May-24 01:31N 57°44' E 020°37'1219.8
2018-May-24 00:55N 57°49' E 020°18'919.7
2018-May-24 00:29N 57°53' E 020°03'919.8
2018-May-24 00:01N 57°59' E 019°49'1019.7
2018-May-23 23:30N 58°04' E 019°33'1020.0
2018-May-23 23:00N 58°09' E 019°17'1020.1
2018-May-23 22:31N 58°17' E 019°04'1120.2
2018-May-23 21:59N 58°25' E 018°51'919.9
2018-May-23 21:30N 58°31' E 018°38'1019.5
2018-May-23 20:59N 58°39' E 018°24'1019.7
2018-May-23 20:30N 58°45' E 018°12'1019.1
2018-May-23 20:01N 58°53' E 018°02'2 4.5
2018-May-23 19:29N 58°54' E 017°58'0 0.0
2018-May-23 18:59N 58°54' E 017°58'0 0.0
2018-May-23 18:29N 58°54' E 017°58'0 0.0
2018-May-23 17:58N 58°54' E 017°58'0 0.0
2018-May-23 17:29N 58°54' E 017°58'0 0.0
2018-May-23 16:59N 58°54' E 017°58'0 0.0
2018-May-23 16:29N 58°54' E 017°58'0 0.0
2018-May-23 15:56N 58°54' E 017°58'0 0.0
2018-May-23 15:30N 58°54' E 017°58'2 4.9
2018-May-23 15:00N 58°53' E 018°02'917.4
2018-May-23 14:30N 58°46' E 018°11'1017.7
2018-May-23 13:57N 58°39' E 018°24'7 0.4
2018-May-22 21:03N 58°34' E 018°34'119.1
2018-May-22 21:00N 58°34' E 018°33'919.0
2018-May-22 20:30N 58°41' E 018°20'918.9
2018-May-22 20:00N 58°48' E 018°08'816.7
2018-May-22 19:30N 58°55' E 017°59'1 1.8
2018-May-22 18:56N 58°54' E 017°58'0 0.0
2018-May-22 18:26N 58°54' E 017°58'0 0.0
2018-May-22 17:59N 58°54' E 017°58'0 0.0
2018-May-22 17:29N 58°54' E 017°58'0 0.0
2018-May-22 16:59N 58°54' E 017°58'0 0.0
2018-May-22 16:29N 58°54' E 017°58'0 0.0
2018-May-22 15:59N 58°54' E 017°58'0 0.0
2018-May-22 15:31N 58°54' E 017°58'2 4.9
2018-May-22 15:01N 58°53' E 018°02'918.0
2018-May-22 14:31N 58°46' E 018°11'918.2
2018-May-22 14:00N 58°39' E 018°24'14 0.9
2018-May-21 21:18N 58°29' E 018°43'819.0
2018-May-21 20:54N 58°34' E 018°33'818.8
2018-May-21 20:30N 58°40' E 018°23'918.3
2018-May-21 20:01N 58°46' E 018°11'918.5
2018-May-21 19:31N 58°54' E 018°01'2 3.6
2018-May-21 18:59N 58°54' E 017°58'0 0.0
2018-May-21 18:29N 58°54' E 017°58'0 0.0
2018-May-21 17:59N 58°54' E 017°58'0 0.0
2018-May-21 17:26N 58°54' E 017°58'0 0.0
2018-May-21 16:59N 58°54' E 017°58'0 0.0
2018-May-21 16:23N 58°54' E 017°58'0 0.0
2018-May-21 15:59N 58°54' E 017°58'0 0.0
2018-May-21 15:29N 58°54' E 017°58'0 0.0
2018-May-21 14:59N 58°54' E 017°58'0 0.0
2018-May-21 14:29N 58°54' E 017°58'0 0.0
2018-May-21 13:59N 58°54' E 017°58'0 0.0
2018-May-21 13:29N 58°54' E 017°58'0 0.0
2018-May-21 12:59N 58°54' E 017°58'0 0.0
2018-May-21 12:29N 58°54' E 017°58'0 0.0
2018-May-21 11:59N 58°54' E 017°58'0 0.0
2018-May-21 11:29N 58°54' E 017°58'0 0.0
2018-May-21 10:59N 58°54' E 017°58'0 0.0
2018-May-21 10:26N 58°54' E 017°58'0 0.0
2018-May-21 09:59N 58°54' E 017°58'0 0.0
2018-May-21 09:29N 58°54' E 017°58'0 0.0
2018-May-21 08:59N 58°54' E 017°58'0 0.0
2018-May-21 08:29N 58°54' E 017°58'0 0.0
2018-May-21 07:59N 58°54' E 017°58'0 0.0
2018-May-21 07:30N 58°54' E 017°58'3 5.6
2018-May-21 07:00N 58°53' E 018°02'714.5
2018-May-21 06:30N 58°47' E 018°09'815.2
2018-May-21 06:00N 58°41' E 018°20'815.2
2018-May-21 05:30N 58°36' E 018°30'8 0.3
2018-May-19 21:02N 58°30' E 018°41'120.4
2018-May-19 20:58N 58°31' E 018°39'1120.5
2018-May-19 20:27N 58°38' E 018°24'920.4
2018-May-19 20:00N 58°45' E 018°12'1020.0
2018-May-19 19:30N 58°53' E 018°02'3 5.4
2018-May-19 19:00N 58°54' E 017°58'0 0.0
2018-May-19 18:30N 58°54' E 017°58'0 0.0
2018-May-19 18:00N 58°54' E 017°58'0 0.0
2018-May-19 17:30N 58°54' E 017°58'0 0.0
2018-May-19 17:00N 58°54' E 017°58'0 0.0
2018-May-19 16:30N 58°54' E 017°58'2 4.7
2018-May-19 16:00N 58°53' E 018°02'1019.1
2018-May-19 15:30N 58°45' E 018°11'917.5
2018-May-19 15:00N 58°39' E 018°24'8 0.4
2018-May-18 21:56N 58°45' E 018°13'920.3
2018-May-18 21:30N 58°52' E 018°03'4 7.6
2018-May-18 20:59N 58°54' E 017°58'0 0.0
2018-May-18 20:29N 58°54' E 017°58'0 0.0
2018-May-18 19:59N 58°54' E 017°58'0 0.0
2018-May-18 19:29N 58°54' E 017°58'0 0.0
2018-May-18 18:59N 58°54' E 017°58'0 0.1
2018-May-18 18:30N 58°54' E 017°58'3 5.2
2018-May-18 18:00N 58°53' E 018°02'815.1
2018-May-18 17:30N 58°47' E 018°11'816.5
2018-May-18 17:00N 58°48' E 018°27'1116.6
2018-May-18 16:19N 58°50' E 018°48'16 0.8
2018-May-17 20:51N 58°46' E 018°19'720.6
2018-May-17 20:31N 58°48' E 018°06'714.6
2018-May-17 20:00N 58°54' E 017°58'0 0.1
2018-May-17 19:22N 58°54' E 017°58'0 0.0
2018-May-17 18:46N 58°54' E 017°58'0 0.0
2018-May-17 18:28N 58°54' E 017°58'0 0.0
2018-May-17 17:58N 58°54' E 017°58'0 0.0
2018-May-17 17:30N 58°54' E 017°58'0 0.0
2018-May-17 17:00N 58°54' E 017°58'0 0.0
2018-May-17 16:30N 58°54' E 017°58'0 0.0
2018-May-17 16:00N 58°54' E 017°58'0 0.0
2018-May-17 15:30N 58°54' E 017°58'3 5.1
2018-May-17 15:00N 58°53' E 018°02'815.7
2018-May-17 14:30N 58°46' E 018°09'54 3.4
2018-May-16 22:57N 58°08' E 019°21'2819.5
2018-May-16 21:31N 58°28' E 018°44'018.6
2018-May-16 21:30N 58°28' E 018°43'1219.6
2018-May-16 20:55N 58°37' E 018°28'819.7
2018-May-16 20:30N 58°42' E 018°17'1019.4
2018-May-16 20:00N 58°50' E 018°05'5 1.1
2018-May-16 15:02N 58°54' E 018°01'520.1
2018-May-16 14:48N 58°50' E 018°04'19 1.1
2018-May-15 21:28N 58°36' E 018°29'1020.4
2018-May-15 20:57N 58°44' E 018°15'1119.7
2018-May-15 20:24N 58°53' E 018°02'1 0.2
2018-May-15 14:57N 58°52' E 018°03'  

Dump ship's entire track history